Thackeray, Illinois
Current Conditions -  °F | °C
As of 11:15 AM on Thursday 23 Oct 2014 (Local Time) from KFWC Reporting Station
Clear Clear  
Wind Chill: 56°   Ceiling: Unl
Heat Index: 56°   Visibility: 10mi
Dew Point: 44°   Wind: 5mph
Humidity: 64%   Direction: 190°S
Pressure: 30.24"   Gusts: NA
Location:  38.1018°N, 88.4953°W
Report Text: KFWC 231615Z AUTO 19004KT 10SM CLR 14/07 A3024 RMK AO1 T01360069
Loading
Personal Weather Stations






























Interactive Weather Map
Tropical Storm Tracking
New forecast layout! Learn more

10-Day Weather Forecast

Advertisements
Track Severe Weather on mobile